Amber, Iowa
Current Conditions -  °F | °C
As of 2:15 AM on Saturday 25 Oct 2014 (Local Time) from KMXO Reporting Station
Moderate Fog Moderate Fog  
Wind Chill: 59°   Ceiling: 200
Heat Index: 59°   Visibility: 0.5mi
Dew Point: 59°   Wind: 8mph
Humidity: 100%   Direction: 280°W
Pressure: 29.94"   Gusts: 15mph
Location:  42.1396°N, 91.2844°W
Report Text: KMXO 250715Z AUTO 28007G13KT 1/2SM FG OVC002 15/15 A2994 RMK AO2
Loading
Personal Weather Stations






























Interactive Weather Map
Tropical Storm Tracking
New forecast layout! Learn more

10-Day Weather Forecast

Advertisements
Track Severe Weather on mobile